Time;durP1;ratioP1;P1;durP2;ratioP2;P2;SDS_P1;SDS_P2;PMS_P1;PMS_P2;Temp;Humidity;BMP_temperature;BMP_pressure;BME280_temperature;BME280_humidity;BME280_pressure;Samples;Min_cycle;Max_cycle;Signal;HPM_P1;HPM_P2
2021/12/22 00:04:43;;;;;;;4.47;3.05;;;14.50;79.00;;;;;;10494965;28;20055;-73
2021/12/22 00:09:44;;;;;;;4.40;3.10;;;14.40;79.00;;;;;;10493647;28;20394;-73
2021/12/22 00:14:46;;;;;;;4.03;3.28;;;14.40;79.00;;;;;;10494030;28;20390;-73
2021/12/22 00:19:47;;;;;;;4.35;3.20;;;14.30;79.10;;;;;;10493590;28;20394;-73
2021/12/22 00:24:49;;;;;;;5.18;3.42;;;14.30;79.10;;;;;;10494134;28;20048;-73
2021/12/22 00:29:52;;;;;;;3.92;3.05;;;14.30;79.10;;;;;;10494054;28;20044;-73
2021/12/22 00:34:55;;;;;;;3.90;3.00;;;14.20;79.10;;;;;;10494107;28;20045;-73
2021/12/22 00:39:56;;;;;;;3.90;3.17;;;14.20;79.20;;;;;;10501306;28;20125;-73
2021/12/22 00:44:58;;;;;;;4.75;3.47;;;14.20;79.20;;;;;;10500725;28;20090;-74
2021/12/22 00:49:59;;;;;;;3.40;3.10;;;14.20;79.30;;;;;;10500319;28;20056;-73
2021/12/22 00:55:01;;;;;;;4.28;3.05;;;14.10;79.20;;;;;;10500445;28;20044;-73
2021/12/22 01:00:02;;;;;;;3.90;3.30;;;14.10;79.20;;;;;;10500322;28;20051;-74
2021/12/22 01:05:03;;;;;;;4.05;3.33;;;14.10;79.80;;;;;;10499972;28;20044;-74
2021/12/22 01:10:05;;;;;;;3.40;2.90;;;14.10;79.30;;;;;;10499544;28;20051;-74
2021/12/22 01:15:06;;;;;;;3.70;3.08;;;14.00;79.20;;;;;;10499909;28;20056;-74
2021/12/22 01:20:13;;;;;;;4.63;3.35;;;14.00;79.20;;;;;;10499190;28;20056;-72
2021/12/22 01:25:16;;;;;;;3.83;2.90;;;14.00;79.30;;;;;;10499189;28;20489;-74
2021/12/22 01:30:19;;;;;;;4.18;3.10;;;14.00;79.30;;;;;;10499332;28;20132;-74
2021/12/22 01:35:20;;;;;;;4.18;3.33;;;13.90;79.30;;;;;;10498810;28;20055;-74
2021/12/22 01:40:22;;;;;;;4.25;3.05;;;13.90;79.40;;;;;;10498683;28;20055;-74
2021/12/22 01:45:30;;;;;;;4.07;3.17;;;13.90;79.40;;;;;;10498295;28;20041;-73
2021/12/22 01:50:32;;;;;;;3.75;3.38;;;13.80;79.40;;;;;;10497963;28;20054;-74
2021/12/22 01:55:36;;;;;;;4.43;3.10;;;13.80;79.40;;;;;;10497909;28;20074;-74
2021/12/22 02:00:37;;;;;;;3.55;3.10;;;13.80;79.40;;;;;;10497823;28;20127;-73
2021/12/22 02:05:39;;;;;;;3.72;3.15;;;13.70;79.30;;;;;;10497542;28;20044;-73
2021/12/22 02:10:46;;;;;;;4.00;3.00;;;13.70;79.40;;;;;;10497294;28;20067;-73
2021/12/22 02:15:48;;;;;;;3.70;3.17;;;13.70;79.40;;;;;;10497017;28;20094;-74
2021/12/22 02:20:49;;;;;;;4.63;3.13;;;13.70;79.40;;;;;;10496843;28;20052;-74
2021/12/22 02:25:55;;;;;;;3.83;3.15;;;13.60;79.40;;;;;;10496838;28;20044;-74
2021/12/22 02:30:57;;;;;;;4.05;3.20;;;13.60;79.40;;;;;;10496481;28;20052;-74
2021/12/22 02:36:10;;;;;;;4.50;3.28;;;13.60;79.50;;;;;;10496555;28;20048;-74
2021/12/22 02:41:13;;;;;;;3.22;2.90;;;13.50;79.40;;;;;;10496187;28;20080;-73
2021/12/22 02:46:14;;;;;;;4.25;2.85;;;13.50;79.50;;;;;;10495840;28;20429;-74
2021/12/22 02:51:16;;;;;;;3.60;2.85;;;13.50;79.50;;;;;;10495863;28;20406;-73
2021/12/22 02:56:33;;;;;;;3.47;3.17;;;13.50;79.40;;;;;;10495665;28;20478;-72
2021/12/22 03:07:07;;;;;;;3.65;3.10;;;13.40;79.40;;;;;;10470331;28;20053;-74
2021/12/22 03:12:08;;;;;;;4.70;3.10;;;13.40;79.30;;;;;;10495149;28;20057;-73
2021/12/22 03:17:10;;;;;;;3.75;3.00;;;13.40;79.40;;;;;;10494966;28;20052;-74
2021/12/22 03:22:12;;;;;;;3.97;3.00;;;13.30;79.20;;;;;;10495324;28;20045;-73
2021/12/22 03:27:14;;;;;;;4.80;3.00;;;13.30;79.00;;;;;;10494952;28;20123;-73
2021/12/22 03:32:15;;;;;;;4.65;3.35;;;13.30;79.00;;;;;;10495013;28;20056;-74
2021/12/22 03:37:17;;;;;;;3.63;3.08;;;13.30;79.10;;;;;;10494870;28;20044;-73
2021/12/22 03:42:18;;;;;;;3.97;3.25;;;13.30;79.20;;;;;;10494519;28;20079;-74
2021/12/22 03:47:21;;;;;;;3.70;2.90;;;13.20;79.00;;;;;;10494513;28;20056;-73
2021/12/22 03:52:22;;;;;;;3.28;2.92;;;13.20;79.00;;;;;;10494364;28;20121;-74
2021/12/22 03:57:23;;;;;;;3.75;2.92;;;13.20;79.00;;;;;;10494577;28;20063;-73
2021/12/22 04:02:25;;;;;;;3.40;3.00;;;13.20;78.60;;;;;;10494676;28;20045;-74
2021/12/22 04:07:26;;;;;;;3.65;3.13;;;13.20;78.80;;;;;;10494026;28;20044;-73
2021/12/22 04:12:28;;;;;;;3.70;3.30;;;13.20;78.90;;;;;;10500067;28;20413;-73
2021/12/22 04:17:29;;;;;;;3.30;3.00;;;13.20;78.40;;;;;;10501581;28;20049;-73
2021/12/22 04:22:31;;;;;;;3.20;2.90;;;13.20;78.50;;;;;;10502102;28;20041;-73
2021/12/22 04:27:32;;;;;;;3.45;3.00;;;13.20;78.70;;;;;;10501418;28;20056;-74
2021/12/22 04:32:34;;;;;;;3.88;3.10;;;13.10;78.20;;;;;;10501330;28;20056;-74
2021/12/22 04:37:38;;;;;;;4.15;3.03;;;13.10;78.30;;;;;;10501054;28;20048;-74
2021/12/22 04:42:39;;;;;;;3.65;3.35;;;13.10;78.50;;;;;;10500817;28;20091;-74
2021/12/22 04:47:41;;;;;;;3.40;3.00;;;13.10;78.20;;;;;;10500466;28;20056;-74
2021/12/22 04:52:48;;;;;;;4.10;3.15;;;13.10;78.20;;;;;;10500287;28;20049;-74
2021/12/22 04:57:49;;;;;;;3.28;2.70;;;13.10;78.30;;;;;;10500751;28;20106;-74
2021/12/22 05:02:51;;;;;;;3.60;3.00;;;13.10;78.20;;;;;;10500118;28;20416;-74
2021/12/22 05:07:52;;;;;;;3.75;3.28;;;13.10;78.10;;;;;;10499938;28;20106;-74
2021/12/22 05:12:54;;;;;;;3.53;3.22;;;13.00;78.00;;;;;;10499920;28;20055;-74
2021/12/22 05:23:23;;;;;;;3.95;3.42;;;13.00;78.10;;;;;;10473798;28;20052;-74
2021/12/22 05:28:24;;;;;;;3.35;3.05;;;13.00;77.80;;;;;;10499177;28;20048;-74
2021/12/22 05:33:26;;;;;;;3.65;3.13;;;13.00;77.80;;;;;;10498886;28;20048;-74
2021/12/22 05:38:27;;;;;;;3.42;2.80;;;13.00;78.00;;;;;;10498466;28;20044;-74
2021/12/22 05:43:29;;;;;;;3.15;2.80;;;13.00;77.80;;;;;;10498617;28;20506;-74
2021/12/22 05:48:30;;;;;;;4.07;3.67;;;12.90;77.80;;;;;;10498107;28;20044;-74
2021/12/22 05:53:32;;;;;;;3.72;3.40;;;12.90;77.50;;;;;;10497961;28;20516;-74
2021/12/22 05:58:33;;;;;;;3.10;2.80;;;12.90;77.60;;;;;;10498003;28;20506;-74
2021/12/22 06:03:35;;;;;;;3.50;3.20;;;12.90;77.70;;;;;;10497681;28;20516;-74
2021/12/22 06:08:36;;;;;;;3.30;3.00;;;12.90;77.50;;;;;;10497358;28;20056;-74
2021/12/22 06:13:38;;;;;;;3.60;3.22;;;12.90;77.50;;;;;;10497279;28;20055;-73
2021/12/22 06:18:43;;;;;;;3.40;2.85;;;12.90;77.30;;;;;;10496920;28;20048;-74
2021/12/22 06:23:45;;;;;;;3.63;3.33;;;12.90;77.30;;;;;;10497180;28;20084;-74
2021/12/22 06:28:46;;;;;;;3.15;2.85;;;12.90;77.50;;;;;;10496503;28;20453;-74
2021/12/22 06:33:48;;;;;;;3.42;3.10;;;12.90;77.30;;;;;;10495527;28;20429;-74
2021/12/22 06:38:49;;;;;;;3.78;3.42;;;12.90;77.30;;;;;;10496090;28;20045;-74
2021/12/22 06:43:51;;;;;;;3.47;3.17;;;12.80;77.00;;;;;;10496366;28;20045;-74
2021/12/22 06:48:52;;;;;;;3.40;3.10;;;12.80;77.10;;;;;;10496006;28;20052;-74
2021/12/22 06:53:54;;;;;;;3.50;3.00;;;12.80;77.20;;;;;;10495672;28;20051;-74
2021/12/22 06:58:57;;;;;;;3.33;3.03;;;12.80;77.00;;;;;;10496004;28;20052;-74
2021/12/22 07:03:58;;;;;;;3.80;3.30;;;12.80;77.00;;;;;;10495934;28;20397;-74
2021/12/22 07:09:00;;;;;;;3.83;3.45;;;12.80;76.80;;;;;;10495248;28;20524;-74
2021/12/22 07:14:01;;;;;;;3.92;3.20;;;12.80;76.90;;;;;;10495248;28;20425;-74
2021/12/22 07:19:03;;;;;;;3.65;3.35;;;12.80;76.90;;;;;;10494927;28;20041;-73
2021/12/22 07:24:04;;;;;;;3.70;3.38;;;12.80;76.80;;;;;;10494998;28;20048;-75
2021/12/22 07:29:06;;;;;;;3.95;3.60;;;12.80;76.90;;;;;;10495022;28;20041;-74
2021/12/22 07:34:07;;;;;;;3.50;3.20;;;12.80;76.60;;;;;;10495051;28;20049;-74
2021/12/22 07:39:09;;;;;;;4.05;3.65;;;12.80;76.70;;;;;;10494812;28;20053;-74
2021/12/22 07:44:10;;;;;;;3.35;3.05;;;12.80;76.60;;;;;;10495611;28;20044;-74
2021/12/22 07:49:12;;;;;;;3.63;3.33;;;12.80;76.60;;;;;;10502928;28;20052;-74
2021/12/22 07:54:13;;;;;;;3.72;3.28;;;12.80;76.60;;;;;;10502784;28;20052;-74
2021/12/22 07:59:15;;;;;;;3.55;3.25;;;12.80;76.50;;;;;;10502757;28;20048;-74
2021/12/22 08:04:16;;;;;;;4.28;3.88;;;12.80;76.50;;;;;;10502366;28;20044;-74
2021/12/22 08:09:26;;;;;;;3.70;3.40;;;12.80;76.30;;;;;;10501982;28;20106;-74
2021/12/22 08:14:27;;;;;;;4.00;3.60;;;12.80;76.40;;;;;;10501950;28;20088;-74
2021/12/22 08:19:29;;;;;;;3.58;3.28;;;12.80;76.30;;;;;;10501668;28;20053;-74
2021/12/22 08:24:30;;;;;;;3.95;3.55;;;12.80;76.30;;;;;;10501731;28;20060;-74
2021/12/22 08:29:31;;;;;;;4.10;3.60;;;12.90;76.40;;;;;;10501362;28;20048;-74
2021/12/22 08:34:37;;;;;;;3.22;2.92;;;12.90;76.20;;;;;;10501896;28;20045;-74
2021/12/22 08:39:38;;;;;;;4.17;3.77;;;12.90;76.20;;;;;;10501043;28;20048;-74
2021/12/22 08:44:40;;;;;;;4.03;3.50;;;13.00;75.90;;;;;;10501127;28;20040;-74
2021/12/22 08:49:41;;;;;;;3.90;3.50;;;13.00;75.90;;;;;;10500279;28;20087;-74
2021/12/22 08:54:43;;;;;;;4.15;3.55;;;13.00;75.80;;;;;;10500437;28;20053;-75
2021/12/22 08:59:44;;;;;;;4.18;3.78;;;13.10;75.70;;;;;;10499052;28;20075;-74
2021/12/22 09:04:46;;;;;;;4.13;3.72;;;13.10;75.80;;;;;;10499845;28;20428;-74
2021/12/22 09:09:47;;;;;;;4.38;3.95;;;13.10;75.50;;;;;;10499922;28;20058;-74
2021/12/22 09:14:49;;;;;;;4.50;4.10;;;13.20;75.60;;;;;;10499874;28;20044;-74
2021/12/22 09:19:52;;;;;;;4.43;3.60;;;13.10;75.50;;;;;;10499226;28;20060;-74
2021/12/22 09:24:54;;;;;;;4.22;3.83;;;13.20;75.50;;;;;;10499850;28;20048;-74
2021/12/22 09:29:55;;;;;;;4.60;4.20;;;13.20;75.70;;;;;;10499162;28;20056;-74
2021/12/22 09:34:57;;;;;;;4.10;3.70;;;13.10;75.50;;;;;;10499127;28;20037;-74
2021/12/22 09:39:58;;;;;;;4.25;3.85;;;13.10;75.60;;;;;;10498735;28;20056;-74
2021/12/22 09:45:01;;;;;;;5.22;4.07;;;13.10;75.70;;;;;;10498921;28;20041;-74
2021/12/22 09:50:11;;;;;;;4.07;3.45;;;13.10;75.60;;;;;;10497975;28;20468;-74
2021/12/22 09:55:13;;;;;;;5.13;4.32;;;13.10;75.70;;;;;;10498090;28;20465;-74
2021/12/22 10:00:14;;;;;;;4.30;3.90;;;13.10;75.50;;;;;;10497779;28;20409;-74
2021/12/22 10:05:15;;;;;;;4.70;3.83;;;13.10;75.60;;;;;;10497464;28;20409;-75
2021/12/22 10:10:17;;;;;;;4.90;4.05;;;13.10;75.80;;;;;;10497253;28;20512;-74
2021/12/22 10:15:18;;;;;;;4.30;3.90;;;13.10;75.60;;;;;;10497294;28;20401;-73
2021/12/22 10:20:21;;;;;;;4.68;4.25;;;13.10;75.70;;;;;;10496782;28;20452;-74
2021/12/22 10:25:22;;;;;;;4.88;3.95;;;13.10;75.60;;;;;;10496888;28;20452;-73
2021/12/22 10:30:25;;;;;;;5.35;4.10;;;13.10;76.10;;;;;;10496668;28;20101;-74
2021/12/22 10:35:26;;;;;;;5.45;4.88;;;13.10;75.60;;;;;;10496639;28;20437;-74
2021/12/22 10:40:28;;;;;;;5.32;4.40;;;13.10;75.60;;;;;;10496035;28;20490;-73
2021/12/22 10:45:30;;;;;;;4.15;3.75;;;13.10;75.60;;;;;;10496356;28;20044;-73
2021/12/22 10:50:32;;;;;;;5.22;4.55;;;13.20;75.90;;;;;;10495949;28;20056;-73
2021/12/22 10:55:33;;;;;;;4.85;4.10;;;13.10;75.60;;;;;;10495867;28;20052;-73
2021/12/22 11:00:35;;;;;;;4.63;4.13;;;13.10;75.70;;;;;;10495996;28;20051;-73
2021/12/22 11:05:36;;;;;;;4.95;4.30;;;13.10;75.70;;;;;;10495678;28;20047;-73
2021/12/22 11:10:38;;;;;;;4.40;3.90;;;13.10;75.70;;;;;;10495421;28;20063;-73
2021/12/22 11:15:39;;;;;;;4.68;4.25;;;13.10;75.90;;;;;;10495347;28;20048;-73
2021/12/22 11:20:46;;;;;;;4.63;4.10;;;13.10;75.80;;;;;;10494287;28;20504;-73
2021/12/22 11:25:47;;;;;;;4.45;3.72;;;13.10;75.70;;;;;;10495204;28;20400;-73
2021/12/22 11:30:49;;;;;;;4.53;4.10;;;13.10;75.90;;;;;;10494819;28;20048;-73
2021/12/22 11:35:50;;;;;;;4.90;4.18;;;13.10;75.80;;;;;;10495199;28;20044;-73
2021/12/22 11:40:55;;;;;;;4.20;3.80;;;13.10;75.90;;;;;;10494718;28;20056;-73
2021/12/22 11:45:57;;;;;;;4.97;4.10;;;13.10;76.00;;;;;;10494762;28;20079;-73
2021/12/22 11:50:58;;;;;;;4.00;3.42;;;13.10;75.90;;;;;;10494777;28;20060;-72
2021/12/22 11:56:00;;;;;;;4.88;3.80;;;13.20;76.00;;;;;;10494610;28;20047;-73
2021/12/22 12:01:08;;;;;;;4.65;3.92;;;13.10;76.10;;;;;;10494652;28;20055;-73
2021/12/22 12:06:09;;;;;;;3.88;3.47;;;13.10;75.90;;;;;;10494220;28;20078;-73
2021/12/22 12:11:11;;;;;;;4.05;3.65;;;13.10;76.00;;;;;;10494236;28;20056;-73
2021/12/22 12:21:41;;;;;;;4.10;3.50;;;13.10;76.00;;;;;;10494163;28;20029;-73
2021/12/22 12:26:43;;;;;;;4.05;3.50;;;13.10;76.00;;;;;;10493944;28;20056;-73
2021/12/22 12:31:45;;;;;;;4.53;3.55;;;13.10;76.20;;;;;;10497239;28;20131;-74
2021/12/22 12:36:46;;;;;;;3.90;3.50;;;13.10;76.00;;;;;;10501226;28;20048;-73
2021/12/22 12:41:48;;;;;;;3.95;3.58;;;13.10;76.10;;;;;;10500831;28;20408;-72
2021/12/22 12:46:49;;;;;;;4.00;3.60;;;13.10;76.20;;;;;;10500946;28;20375;-73
2021/12/22 12:51:52;;;;;;;4.20;3.80;;;13.10;76.10;;;;;;10500432;28;20058;-72
2021/12/22 12:56:54;;;;;;;4.15;3.30;;;13.20;76.20;;;;;;10500667;28;20053;-73
2021/12/22 13:01:55;;;;;;;4.15;3.75;;;13.10;76.20;;;;;;10500443;28;20048;-73
2021/12/22 13:06:57;;;;;;;5.05;3.30;;;13.10;76.70;;;;;;10499924;28;20048;-72
2021/12/22 13:12:02;;;;;;;4.00;3.35;;;13.20;76.30;;;;;;10499387;28;20067;-73
2021/12/22 13:17:04;;;;;;;3.50;3.20;;;13.20;76.20;;;;;;10499427;28;20044;-72
2021/12/22 13:22:05;;;;;;;3.78;3.22;;;13.20;76.30;;;;;;10499877;28;20493;-73
2021/12/22 13:27:07;;;;;;;4.57;3.60;;;13.20;76.20;;;;;;10499429;28;20052;-72
2021/12/22 13:32:08;;;;;;;3.60;3.30;;;13.20;76.30;;;;;;10499238;28;20416;-73
2021/12/22 13:37:10;;;;;;;3.65;3.33;;;13.20;76.90;;;;;;10499033;28;20048;-74
2021/12/22 13:42:11;;;;;;;3.75;3.03;;;13.10;76.20;;;;;;10498112;28;20546;-73
2021/12/22 13:47:13;;;;;;;3.42;3.13;;;13.20;76.30;;;;;;10498510;28;20049;-73
2021/12/22 13:52:14;;;;;;;4.03;3.30;;;13.20;76.30;;;;;;10498199;28;20052;-73
2021/12/22 13:57:16;;;;;;;3.35;3.05;;;13.10;76.50;;;;;;10498269;28;20078;-73
2021/12/22 14:02:17;;;;;;;3.53;3.10;;;13.10;76.30;;;;;;10498268;28;20040;-73
2021/12/22 14:07:21;;;;;;;3.70;3.05;;;13.10;76.40;;;;;;10497347;28;20045;-72
2021/12/22 14:12:22;;;;;;;3.28;2.97;;;13.10;76.40;;;;;;10497388;28;20110;-73
2021/12/22 14:17:24;;;;;;;3.92;3.35;;;13.00;76.30;;;;;;10497206;28;20051;-73
2021/12/22 14:22:25;;;;;;;4.85;3.70;;;13.10;76.40;;;;;;10497250;28;20062;-73
2021/12/22 14:27:27;;;;;;;3.53;3.22;;;13.00;76.30;;;;;;10496962;28;20044;-72
2021/12/22 14:32:31;;;;;;;3.47;2.90;;;13.00;76.30;;;;;;10496942;28;20048;-73
2021/12/22 14:37:32;;;;;;;3.45;2.85;;;13.00;76.40;;;;;;10496636;28;20090;-74
2021/12/22 14:42:34;;;;;;;4.03;3.00;;;13.00;76.30;;;;;;10496330;28;20040;-73
2021/12/22 14:47:35;;;;;;;3.70;2.97;;;13.00;76.40;;;;;;10496029;28;20110;-73
2021/12/22 14:52:36;;;;;;;3.67;3.05;;;13.00;76.30;;;;;;10495755;28;20052;-72
2021/12/22 14:57:38;;;;;;;3.25;2.85;;;13.00;76.30;;;;;;10494976;28;20052;-73
2021/12/22 15:02:39;;;;;;;3.10;2.80;;;13.00;76.40;;;;;;10495702;28;20401;-73
2021/12/22 15:07:41;;;;;;;3.00;2.70;;;13.00;76.30;;;;;;10495601;28;20535;-73
2021/12/22 15:12:42;;;;;;;3.30;2.95;;;13.00;76.30;;;;;;10495338;28;20417;-72
2021/12/22 15:17:44;;;;;;;3.13;2.83;;;12.90;76.20;;;;;;10495170;28;20052;-74
2021/12/22 15:22:45;;;;;;;2.95;2.67;;;12.90;76.30;;;;;;10495526;28;20056;-73
2021/12/22 15:27:47;;;;;;;3.70;2.95;;;12.90;76.30;;;;;;10495345;28;20350;-73
2021/12/22 15:32:48;;;;;;;2.95;2.60;;;12.90;76.30;;;;;;10495288;28;20058;-73
2021/12/22 15:37:50;;;;;;;2.90;2.53;;;12.90;76.40;;;;;;10494966;28;20052;-73
2021/12/22 15:42:51;;;;;;;2.60;2.40;;;12.90;76.30;;;;;;10495217;28;20056;-73
2021/12/22 15:47:55;;;;;;;2.65;2.40;;;12.90;76.30;;;;;;10494487;28;20048;-73
2021/12/22 15:52:57;;;;;;;3.05;2.35;;;12.90;76.10;;;;;;10494787;28;20454;-73
2021/12/22 15:58:01;;;;;;;3.55;3.10;;;12.90;76.20;;;;;;10494579;28;20421;-74
2021/12/22 16:03:03;;;;;;;3.08;2.47;;;12.90;76.20;;;;;;10494244;28;20414;-74
2021/12/22 16:08:04;;;;;;;2.53;2.33;;;12.90;76.20;;;;;;10499544;28;20402;-74
2021/12/22 16:13:06;;;;;;;3.15;2.65;;;12.90;76.20;;;;;;10501818;28;20501;-73
2021/12/22 16:18:09;;;;;;;2.95;2.45;;;12.90;76.20;;;;;;10501739;28;20094;-74
2021/12/22 16:23:10;;;;;;;2.50;2.30;;;12.90;76.30;;;;;;10501872;28;20093;-73
2021/12/22 16:28:12;;;;;;;3.10;2.72;;;12.90;76.10;;;;;;10501591;28;20045;-73
2021/12/22 16:33:13;;;;;;;3.45;2.70;;;12.90;76.20;;;;;;10501553;28;20044;-73
2021/12/22 16:38:15;;;;;;;2.53;2.33;;;12.80;76.00;;;;;;10501414;28;20041;-74
2021/12/22 16:43:16;;;;;;;3.20;2.90;;;12.90;76.10;;;;;;10500950;28;20044;-74
2021/12/22 16:48:18;;;;;;;2.50;2.30;;;12.80;76.00;;;;;;10500870;28;20051;-74
2021/12/22 16:53:19;;;;;;;3.35;2.92;;;12.90;76.00;;;;;;10500663;28;20056;-73
2021/12/22 16:58:21;;;;;;;2.60;2.40;;;12.90;76.00;;;;;;10500546;28;20106;-74
2021/12/22 17:03:22;;;;;;;3.10;2.60;;;12.90;76.00;;;;;;10500109;28;20478;-73
2021/12/22 17:08:24;;;;;;;3.42;2.80;;;12.90;76.00;;;;;;10499850;28;20079;-73
2021/12/22 17:13:25;;;;;;;2.63;2.30;;;12.90;76.00;;;;;;10499729;28;20056;-73
2021/12/22 17:18:27;;;;;;;2.80;2.50;;;12.90;76.00;;;;;;10498709;28;20048;-74
2021/12/22 17:23:28;;;;;;;2.85;2.42;;;12.90;75.90;;;;;;10499737;28;20044;-73
2021/12/22 17:28:31;;;;;;;3.25;2.55;;;12.90;76.00;;;;;;10499615;28;20055;-73
2021/12/22 17:33:33;;;;;;;2.72;2.53;;;12.90;75.90;;;;;;10499061;28;20048;-73
2021/12/22 17:38:34;;;;;;;3.00;2.70;;;12.90;75.90;;;;;;10499023;28;20041;-73
2021/12/22 17:43:36;;;;;;;3.10;2.80;;;12.90;75.90;;;;;;10498621;28;20048;-73
2021/12/22 17:48:37;;;;;;;3.00;2.58;;;12.90;75.90;;;;;;10498174;28;20090;-73
2021/12/22 17:53:39;;;;;;;3.30;2.58;;;12.90;75.90;;;;;;10498044;28;20052;-73
2021/12/22 17:58:40;;;;;;;3.00;2.70;;;12.90;75.90;;;;;;10497855;28;20044;-73
2021/12/22 18:03:44;;;;;;;3.13;2.55;;;12.90;75.90;;;;;;10497774;28;20052;-73
2021/12/22 18:08:45;;;;;;;2.72;2.40;;;12.90;75.80;;;;;;10497545;28;20413;-73
2021/12/22 18:13:47;;;;;;;3.03;2.60;;;12.90;75.90;;;;;;10497151;28;20057;-73
2021/12/22 18:18:48;;;;;;;2.92;2.42;;;12.90;75.80;;;;;;10496984;28;20401;-73
2021/12/22 18:23:50;;;;;;;2.92;2.58;;;12.90;75.90;;;;;;10497328;28;20048;-73
2021/12/22 18:28:52;;;;;;;3.20;2.70;;;12.90;75.80;;;;;;10496776;28;20040;-73
2021/12/22 18:33:53;;;;;;;2.90;2.60;;;12.90;75.90;;;;;;10496441;28;20055;-73
2021/12/22 18:38:56;;;;;;;2.88;2.35;;;12.80;75.80;;;;;;10496354;28;20084;-73
2021/12/22 18:43:58;;;;;;;3.33;2.88;;;12.90;75.80;;;;;;10496358;28;20105;-73
2021/12/22 18:48:59;;;;;;;3.08;2.65;;;12.80;75.70;;;;;;10496619;28;20048;-73
2021/12/22 18:54:01;;;;;;;3.42;3.13;;;12.90;75.80;;;;;;10495747;28;20080;-73
2021/12/22 18:59:02;;;;;;;3.30;2.70;;;12.80;75.70;;;;;;10495611;28;20504;-73
2021/12/22 19:04:04;;;;;;;3.53;2.90;;;12.90;75.80;;;;;;10495667;28;20044;-73
2021/12/22 19:09:05;;;;;;;2.80;2.40;;;12.80;75.70;;;;;;10495227;28;20489;-74
2021/12/22 19:14:07;;;;;;;4.00;3.35;;;12.80;75.70;;;;;;10495249;28;20394;-73
2021/12/22 19:19:08;;;;;;;2.92;2.63;;;12.80;75.70;;;;;;10495198;28;20044;-73
2021/12/22 19:24:10;;;;;;;3.17;2.88;;;12.80;75.70;;;;;;10495664;28;20048;-74
2021/12/22 19:29:11;;;;;;;3.20;2.90;;;12.80;75.70;;;;;;10494956;28;20049;-73
2021/12/22 19:34:13;;;;;;;3.10;2.78;;;12.80;75.70;;;;;;10494729;28;20127;-73
2021/12/22 19:39:14;;;;;;;2.97;2.60;;;12.90;75.70;;;;;;10495207;28;20056;-73
2021/12/22 19:44:16;;;;;;;3.38;2.80;;;12.80;75.60;;;;;;10502879;28;20050;-74
2021/12/22 19:49:17;;;;;;;3.10;2.80;;;12.80;75.70;;;;;;10503054;28;20498;-73
2021/12/22 19:54:19;;;;;;;3.30;2.78;;;12.80;75.70;;;;;;10502989;28;20382;-73
2021/12/22 19:59:20;;;;;;;2.72;2.50;;;12.80;75.70;;;;;;10502642;28;20044;-73
2021/12/22 20:04:22;;;;;;;3.63;2.83;;;12.80;75.70;;;;;;10502462;28;20486;-73
2021/12/22 20:09:23;;;;;;;3.42;3.13;;;12.80;75.70;;;;;;10502273;28;20390;-73
2021/12/22 20:14:24;;;;;;;3.22;2.42;;;12.80;75.60;;;;;;10502337;28;20049;-72
2021/12/22 20:19:26;;;;;;;4.03;3.22;;;12.80;75.70;;;;;;10501894;28;20481;-73
2021/12/22 20:24:27;;;;;;;2.53;2.28;;;12.80;75.60;;;;;;10501675;28;20090;-72
2021/12/22 20:29:29;;;;;;;3.22;2.80;;;12.80;75.70;;;;;;10501686;28;20048;-71
2021/12/22 20:34:31;;;;;;;3.20;2.90;;;12.80;75.60;;;;;;10501425;28;20048;-72
2021/12/22 20:39:32;;;;;;;3.33;3.03;;;12.80;75.60;;;;;;10501442;28;20053;-73
2021/12/22 20:44:34;;;;;;;3.65;2.67;;;12.80;75.60;;;;;;10501142;28;20417;-73
2021/12/22 20:49:36;;;;;;;3.45;3.03;;;12.80;75.60;;;;;;10500555;28;20049;-73
2021/12/22 20:54:38;;;;;;;3.17;2.70;;;12.80;75.50;;;;;;10499286;28;20508;-73
2021/12/22 20:59:39;;;;;;;4.15;3.40;;;12.80;75.60;;;;;;10500131;28;20405;-72
2021/12/22 21:04:41;;;;;;;3.42;3.10;;;12.80;75.50;;;;;;10499939;28;20113;-73
2021/12/22 21:09:42;;;;;;;4.20;3.28;;;12.80;75.50;;;;;;10499819;28;20052;-73
2021/12/22 21:14:44;;;;;;;3.67;2.72;;;12.80;75.50;;;;;;10500133;28;20045;-73
2021/12/22 21:19:45;;;;;;;3.58;3.13;;;12.80;75.50;;;;;;10499726;28;20063;-73
2021/12/22 21:24:47;;;;;;;3.17;2.88;;;12.80;75.50;;;;;;10499480;28;20052;-73
2021/12/22 21:29:48;;;;;;;4.25;3.50;;;12.80;75.50;;;;;;10499738;28;20128;-73
2021/12/22 21:34:50;;;;;;;3.10;2.80;;;12.70;75.50;;;;;;10498903;28;20513;-73
2021/12/22 21:39:51;;;;;;;3.83;3.08;;;12.80;75.50;;;;;;10499077;28;20044;-73
2021/12/22 21:44:53;;;;;;;3.30;2.80;;;12.70;75.50;;;;;;10498955;28;20055;-73
2021/12/22 21:49:54;;;;;;;3.90;3.20;;;12.70;75.50;;;;;;10498242;28;20048;-73
2021/12/22 21:54:56;;;;;;;3.47;2.70;;;12.70;75.40;;;;;;10498272;28;20110;-72
2021/12/22 21:59:57;;;;;;;3.75;3.25;;;12.70;75.40;;;;;;10498121;28;20048;-73
2021/12/22 22:05:05;;;;;;;3.63;3.00;;;12.70;75.40;;;;;;10497616;28;20052;-73
2021/12/22 22:10:07;;;;;;;3.50;3.20;;;12.80;75.50;;;;;;10497344;28;20497;-73
2021/12/22 22:15:08;;;;;;;3.08;2.58;;;12.80;75.50;;;;;;10497595;28;20052;-73
2021/12/22 22:20:10;;;;;;;3.80;3.40;;;12.70;75.40;;;;;;10497114;28;20049;-73
2021/12/22 22:25:13;;;;;;;4.07;3.05;;;12.70;75.40;;;;;;10496987;28;20060;-71
2021/12/22 22:30:15;;;;;;;3.70;3.20;;;12.70;75.40;;;;;;10497043;28;20045;-73
2021/12/22 22:35:16;;;;;;;3.28;2.75;;;12.80;75.40;;;;;;10496409;28;20059;-73
2021/12/22 22:40:18;;;;;;;4.18;3.40;;;12.70;75.40;;;;;;10496402;28;20068;-73
2021/12/22 22:45:19;;;;;;;3.00;2.70;;;12.70;75.40;;;;;;10496132;28;20053;-73
2021/12/22 22:50:21;;;;;;;3.65;3.13;;;12.70;75.40;;;;;;10495813;28;20110;-73
2021/12/22 22:55:22;;;;;;;3.17;2.88;;;12.70;75.40;;;;;;10495989;28;20490;-73
2021/12/22 23:00:24;;;;;;;4.40;3.75;;;12.70;75.40;;;;;;10495703;28;20431;-73
2021/12/22 23:05:25;;;;;;;3.45;2.83;;;12.70;75.40;;;;;;10495716;28;20405;-73
2021/12/22 23:10:26;;;;;;;3.90;3.50;;;12.70;75.40;;;;;;10495500;28;20505;-73
2021/12/22 23:15:29;;;;;;;3.38;2.70;;;12.70;75.30;;;;;;10494667;28;20457;-72
2021/12/22 23:20:30;;;;;;;4.05;3.50;;;12.80;75.40;;;;;;10495212;28;20044;-72
2021/12/22 23:25:32;;;;;;;3.75;3.33;;;12.70;75.30;;;;;;10495159;28;20051;-73
2021/12/22 23:30:33;;;;;;;4.20;3.50;;;12.70;75.30;;;;;;10495520;28;20090;-72
2021/12/22 23:35:35;;;;;;;4.07;3.50;;;12.70;75.30;;;;;;10494944;28;20048;-72
2021/12/22 23:40:45;;;;;;;3.42;3.13;;;12.70;75.40;;;;;;10495175;28;20489;-72
2021/12/22 23:51:08;;;;;;;4.00;3.60;;;12.70;75.40;;;;;;10477084;28;20120;-72
2021/12/22 23:56:09;;;;;;;3.50;3.17;;;12.70;75.40;;;;;;10494755;28;20060;-73
